Time;durP1;ratioP1;P1;durP2;ratioP2;P2;SDS_P1;SDS_P2;PMS_P1;PMS_P2;Temp;Humidity;BMP_temperature;BMP_pressure;BME280_temperature;BME280_humidity;BME280_pressure;Samples;Min_cycle;Max_cycle;Signal;HPM_P1;HPM_P2
2021/12/06 00:02:04;;;;;;;13.45;10.98;;;;;;;3.97;80.25;99360.59;4960020;28;20056;-62
2021/12/06 00:04:37;;;;;;;16.45;12.10;;;;;;;3.97;80.87;99365.72;4959514;28;20039;-62
2021/12/06 00:07:12;;;;;;;13.40;10.82;;;;;;;3.99;80.91;99370.03;4975761;28;20414;-63
2021/12/06 00:09:46;;;;;;;16.90;12.75;;;;;;;3.96;80.81;99366.56;4977368;28;20034;-63
2021/12/06 00:12:14;;;;;;;14.07;11.35;;;;;;;3.98;80.66;99364.03;4976020;28;20090;-62
2021/12/06 00:14:41;;;;;;;13.23;11.40;;;;;;;3.97;81.24;99365.72;4959710;28;20031;-63
2021/12/06 00:17:15;;;;;;;14.45;11.40;;;;;;;3.97;80.60;99373.41;4976879;28;20086;-62
2021/12/06 00:19:44;;;;;;;15.23;11.27;;;;;;;3.99;81.02;99377.72;4959631;28;20402;-63
2021/12/06 00:22:16;;;;;;;16.38;11.82;;;;;;;3.98;80.75;99371.72;4959818;28;20041;-63
2021/12/06 00:24:45;;;;;;;17.67;12.27;;;;;;;3.98;80.56;99376.84;4959234;28;20502;-63
2021/12/06 00:27:11;;;;;;;16.83;11.50;;;;;;;3.98;80.86;99379.44;4975623;28;20041;-63
2021/12/06 00:29:37;;;;;;;14.23;11.38;;;;;;;3.99;80.39;99388.88;4976803;28;20031;-63
2021/12/06 00:32:06;;;;;;;13.65;10.93;;;;;;;3.98;81.20;99374.28;4943201;28;20039;-63
2021/12/06 00:34:36;;;;;;;13.55;11.90;;;;;;;3.99;80.84;99387.97;4943351;28;20079;-63
2021/12/06 00:37:18;;;;;;;14.63;11.90;;;;;;;3.97;81.28;99381.09;4943220;28;20046;-63
2021/12/06 00:39:49;;;;;;;14.23;11.48;;;;;;;3.99;80.83;99393.09;4976579;28;20043;-63
2021/12/06 00:42:19;;;;;;;15.88;12.13;;;;;;;3.97;80.79;99396.50;4976440;28;20043;-63
2021/12/06 00:44:48;;;;;;;15.07;11.45;;;;;;;3.99;80.55;99404.25;4943865;28;20035;-63
2021/12/06 00:47:14;;;;;;;16.02;11.88;;;;;;;3.98;80.27;99402.50;4976332;28;20117;-63
2021/12/06 00:49:45;;;;;;;14.18;11.60;;;;;;;3.97;80.96;99401.63;4959119;28;20043;-62
2021/12/06 00:52:15;;;;;;;15.02;12.38;;;;;;;3.97;80.74;99411.88;4943020;28;20038;-62
2021/12/06 00:54:42;;;;;;;14.07;11.77;;;;;;;3.97;80.57;99404.19;4958965;28;20498;-62
2021/12/06 00:57:11;;;;;;;15.90;12.07;;;;;;;3.97;81.30;99404.19;4976113;28;20043;-62
2021/12/06 00:59:40;;;;;;;14.15;11.95;;;;;;;3.99;81.40;99409.38;4976557;28;20035;-63
2021/12/06 01:02:08;;;;;;;14.38;11.23;;;;;;;3.98;80.55;99423.00;4955296;29;20051;-63
2021/12/06 01:04:40;;;;;;;15.00;11.45;;;;;;;3.97;80.71;99432.38;4956646;28;20110;-62
2021/12/06 01:07:06;;;;;;;15.00;12.02;;;;;;;3.96;80.94;99433.25;4955502;29;20039;-63
2021/12/06 01:09:32;;;;;;;16.17;11.43;;;;;;;3.97;80.91;99439.22;4955509;29;20043;-62
2021/12/06 01:11:59;;;;;;;14.70;11.20;;;;;;;3.97;80.71;99447.78;4955418;29;20046;-62
2021/12/06 01:14:24;;;;;;;14.63;12.02;;;;;;;3.97;80.46;99454.59;4955589;29;20166;-63
2021/12/06 01:16:50;;;;;;;17.23;12.02;;;;;;;3.95;80.77;99454.56;4955022;28;20031;-63
2021/12/06 01:19:16;;;;;;;16.63;12.43;;;;;;;3.97;80.76;99463.16;4956302;28;20043;-63
2021/12/06 01:22:06;;;;;;;18.20;13.23;;;;;;;3.97;80.75;99468.28;4955294;28;20075;-63
2021/12/06 01:24:41;;;;;;;15.85;12.95;;;;;;;3.96;81.18;99471.69;4955263;29;20549;-62
2021/12/06 01:40:29;;;;;;;17.90;12.93;;;;;;;3.97;81.14;99485.38;4956114;28;20050;-63
2021/12/06 01:43:04;;;;;;;19.40;14.40;;;;;;;3.96;80.82;99488.75;4956040;28;20035;-63
2021/12/06 01:45:29;;;;;;;19.30;13.75;;;;;;;3.96;80.47;99497.34;4956313;28;20094;-63
2021/12/06 01:47:58;;;;;;;16.63;12.40;;;;;;;3.95;80.64;99498.16;4956439;28;20443;-63
2021/12/06 01:50:27;;;;;;;17.70;13.73;;;;;;;3.97;80.48;99498.19;4956115;28;20066;-63
2021/12/06 01:52:57;;;;;;;16.27;12.75;;;;;;;3.97;80.35;99500.75;4954744;29;20043;-63
2021/12/06 01:55:32;;;;;;;16.20;11.35;;;;;;;3.96;80.90;99502.47;4938557;29;20043;-63
2021/12/06 01:58:07;;;;;;;18.70;14.20;;;;;;;3.96;80.65;99497.34;4939223;29;20059;-63
2021/12/06 02:00:48;;;;;;;15.75;12.13;;;;;;;3.95;81.33;99499.84;4955036;29;20399;-63
2021/12/06 02:03:13;;;;;;;20.45;14.63;;;;;;;3.95;81.09;99500.72;4938446;29;20406;-62
2021/12/06 02:05:42;;;;;;;16.52;12.98;;;;;;;3.96;81.37;99506.72;4955629;28;20130;-62
2021/12/06 02:08:09;;;;;;;15.02;12.02;;;;;;;3.96;80.80;99512.72;4955581;28;20035;-63
2021/12/06 02:10:38;;;;;;;15.20;12.40;;;;;;;3.95;81.10;99510.97;4955459;28;20122;-62
2021/12/06 02:13:10;;;;;;;16.58;12.98;;;;;;;3.94;80.93;99511.78;4955637;28;20039;-62
2021/12/06 02:15:43;;;;;;;15.48;12.73;;;;;;;3.96;81.53;99520.41;4954251;29;20042;-63
2021/12/06 02:18:27;;;;;;;17.77;13.02;;;;;;;3.95;81.25;99518.66;4938964;29;20439;-63
2021/12/06 02:21:02;;;;;;;16.90;13.55;;;;;;;3.95;80.96;99518.66;4954633;29;20049;-63
2021/12/06 02:23:31;;;;;;;17.73;13.60;;;;;;;3.95;80.84;99517.78;4938482;29;20554;-62
2021/12/06 02:25:57;;;;;;;16.20;13.27;;;;;;;3.94;80.91;99529.75;4938353;29;20450;-62
2021/12/06 02:28:25;;;;;;;15.13;12.27;;;;;;;3.95;81.10;99526.38;4955530;29;20035;-62
2021/12/06 02:30:53;;;;;;;19.58;13.10;;;;;;;3.95;81.27;99525.47;4954885;28;20126;-62
2021/12/06 02:33:23;;;;;;;17.13;12.95;;;;;;;3.95;80.90;99533.16;4955347;28;20039;-62
2021/12/06 02:35:48;;;;;;;15.35;12.07;;;;;;;3.95;81.10;99536.63;4953970;29;20102;-63
2021/12/06 02:38:17;;;;;;;16.45;12.85;;;;;;;3.96;81.55;99543.50;4954207;29;20501;-63
2021/12/06 02:40:42;;;;;;;16.83;13.00;;;;;;;3.95;81.05;99533.16;4955588;29;20043;-62
2021/12/06 02:43:10;;;;;;;17.45;13.15;;;;;;;3.94;80.94;99544.25;4954212;28;20093;-62
2021/12/06 02:45:37;;;;;;;14.95;12.20;;;;;;;3.94;80.73;99546.81;4938095;29;20511;-63
2021/12/06 02:48:09;;;;;;;16.48;12.55;;;;;;;3.95;80.63;99549.44;4938298;29;20042;-62
2021/12/06 02:50:45;;;;;;;18.60;14.48;;;;;;;3.94;80.62;99546.81;4955848;28;20161;-63
2021/12/06 02:53:11;;;;;;;14.90;11.73;;;;;;;3.95;81.02;99553.69;4938433;29;20410;-63
2021/12/06 02:55:41;;;;;;;18.45;14.00;;;;;;;3.94;80.91;99552.81;4937921;29;20040;-62
2021/12/06 03:01:10;;;;;;;17.63;14.25;;;;;;;3.92;80.80;99559.59;4955183;28;20491;-62
2021/12/06 03:03:37;;;;;;;19.63;14.23;;;;;;;3.91;80.82;99552.72;4954383;29;20046;-63
2021/12/06 03:06:04;;;;;;;18.90;14.00;;;;;;;3.91;80.76;99556.94;4937943;29;20039;-63
2021/12/06 03:08:57;;;;;;;16.73;13.55;;;;;;;3.91;81.16;99559.50;4938051;29;20046;-63
2021/12/06 03:11:30;;;;;;;18.38;13.88;;;;;;;3.90;81.22;99563.78;4955070;28;20047;-62
2021/12/06 03:13:59;;;;;;;18.20;15.07;;;;;;;3.89;81.29;99559.47;4954860;28;20392;-62
2021/12/06 03:16:28;;;;;;;19.35;15.60;;;;;;;3.89;81.08;99566.31;4937801;29;20459;-62
2021/12/06 03:18:57;;;;;;;19.83;14.70;;;;;;;3.89;80.80;99567.16;4954977;28;20047;-63
2021/12/06 03:21:26;;;;;;;20.80;15.98;;;;;;;3.88;80.86;99570.53;4937772;29;20047;-63
2021/12/06 03:23:54;;;;;;;21.38;15.75;;;;;;;3.86;81.31;99571.31;4954732;28;20031;-62
2021/12/06 03:26:26;;;;;;;20.17;15.70;;;;;;;3.88;81.37;99569.69;4938170;29;20122;-62
2021/12/06 03:28:55;;;;;;;23.25;17.48;;;;;;;3.87;81.14;99573.06;4954550;28;20495;-63
2021/12/06 03:31:28;;;;;;;22.55;16.48;;;;;;;3.86;81.42;99572.19;4937727;29;20054;-62
2021/12/06 03:33:56;;;;;;;22.30;17.55;;;;;;;3.85;80.83;99567.88;4955295;28;20051;-62
2021/12/06 03:36:27;;;;;;;23.08;16.80;;;;;;;3.86;80.79;99572.19;4937640;29;20483;-62
2021/12/06 03:38:58;;;;;;;20.90;16.20;;;;;;;3.86;81.40;99573.88;4954916;28;20035;-63
2021/12/06 03:41:30;;;;;;;21.67;15.82;;;;;;;3.86;81.05;99581.56;4939490;29;20047;-63
2021/12/06 03:43:58;;;;;;;21.00;16.52;;;;;;;3.86;80.77;99582.44;4941450;29;20102;-62
2021/12/06 03:46:30;;;;;;;20.10;15.25;;;;;;;3.86;80.98;99568.75;4940955;29;20031;-63
2021/12/06 03:49:06;;;;;;;20.55;15.98;;;;;;;3.86;81.14;99577.31;4957539;29;20035;-62
2021/12/06 03:51:38;;;;;;;20.40;16.17;;;;;;;3.87;80.84;99585.88;4957185;29;20035;-63
2021/12/06 03:54:04;;;;;;;18.67;14.57;;;;;;;3.87;81.07;99591.00;4940924;29;20127;-62
2021/12/06 03:56:36;;;;;;;21.13;16.08;;;;;;;3.87;81.47;99585.88;4958034;28;20192;-64
2021/12/06 03:59:02;;;;;;;22.38;17.17;;;;;;;3.86;81.31;99579.88;4957962;29;20036;-62
2021/12/06 04:01:35;;;;;;;22.30;17.50;;;;;;;3.86;81.08;99589.25;4960568;28;20130;-63
2021/12/06 04:04:05;;;;;;;22.30;17.70;;;;;;;3.85;81.41;99595.22;4959783;28;20123;-62
2021/12/06 04:06:33;;;;;;;20.23;16.38;;;;;;;3.85;81.18;99592.66;4976968;28;20117;-62
2021/12/06 04:08:59;;;;;;;22.15;17.08;;;;;;;3.86;81.39;99591.81;4943753;28;20101;-62
2021/12/06 04:11:29;;;;;;;19.55;16.33;;;;;;;3.86;81.25;99600.38;4976938;28;20035;-63
2021/12/06 04:13:58;;;;;;;21.20;16.88;;;;;;;3.88;81.54;99603.00;4959585;28;20413;-63
2021/12/06 04:16:26;;;;;;;18.70;14.30;;;;;;;3.88;81.38;99605.56;4959610;28;20042;-62
2021/12/06 04:18:54;;;;;;;21.33;16.50;;;;;;;3.87;81.32;99603.84;4960068;28;20517;-63
2021/12/06 04:21:27;;;;;;;21.50;16.52;;;;;;;3.88;81.32;99600.44;4976996;28;20047;-63
2021/12/06 04:23:58;;;;;;;21.38;16.30;;;;;;;3.87;81.54;99599.56;4976869;28;20034;-62
2021/12/06 04:26:27;;;;;;;19.02;15.32;;;;;;;3.87;81.32;99614.94;4976624;28;20059;-62
2021/12/06 04:28:59;;;;;;;20.08;15.77;;;;;;;3.88;81.04;99628.66;4976678;28;20418;-63
2021/12/06 04:31:39;;;;;;;19.45;15.55;;;;;;;3.88;81.15;99641.47;4976723;28;20054;-63
2021/12/06 04:34:10;;;;;;;21.60;17.23;;;;;;;3.88;81.17;99646.59;4976761;28;20065;-63
2021/12/06 04:36:42;;;;;;;17.95;14.50;;;;;;;3.88;81.24;99649.16;4959299;28;20037;-62
2021/12/06 04:39:13;;;;;;;18.85;14.90;;;;;;;3.89;81.26;99648.34;4976818;28;20066;-62
2021/12/06 04:41:42;;;;;;;16.40;13.68;;;;;;;3.88;81.01;99641.47;4976881;28;20063;-62
2021/12/06 04:44:09;;;;;;;21.55;16.20;;;;;;;3.88;81.06;99641.47;4959062;28;20043;-62
2021/12/06 04:46:37;;;;;;;19.63;14.93;;;;;;;3.88;81.13;99632.06;4959205;28;20031;-63
2021/12/06 04:49:09;;;;;;;18.67;15.15;;;;;;;3.88;81.11;99639.78;4959050;28;20105;-62
2021/12/06 04:51:42;;;;;;;15.05;12.90;;;;;;;3.88;81.24;99636.34;4959124;28;20046;-63
2021/12/06 04:54:14;;;;;;;18.75;14.20;;;;;;;3.88;81.15;99641.47;4976022;28;20039;-62
2021/12/06 04:56:48;;;;;;;18.60;14.30;;;;;;;3.89;81.45;99653.47;4959049;28;20043;-63
2021/12/06 04:59:19;;;;;;;;;;;;;;;3.87;81.04;99658.53;4976649;28;20132;-62
2021/12/06 05:01:54;;;;;;;19.13;13.98;;;;;;;3.86;81.79;99658.50;4975826;28;19926;-63
2021/12/06 05:04:27;;;;;;;17.30;14.15;;;;;;;3.85;80.98;99664.44;4975919;28;20482;-62
2021/12/06 05:07:01;;;;;;;20.17;15.00;;;;;;;3.86;81.33;99668.75;4976378;28;20053;-63
2021/12/06 05:09:34;;;;;;;19.15;14.50;;;;;;;3.85;81.04;99675.53;4943037;28;20042;-62
2021/12/06 05:12:06;;;;;;;17.33;14.27;;;;;;;3.85;81.10;99678.09;4958846;28;20041;-63
2021/12/06 05:14:31;;;;;;;17.63;13.88;;;;;;;3.85;81.42;99678.09;4975836;28;20039;-62
2021/12/06 05:16:57;;;;;;;18.23;15.40;;;;;;;3.84;81.67;99678.91;4975672;28;20371;-62
2021/12/06 05:19:23;;;;;;;17.35;14.38;;;;;;;3.84;81.34;99681.47;4958447;28;20484;-63
2021/12/06 05:21:48;;;;;;;19.52;15.27;;;;;;;3.85;81.37;99680.66;4975741;28;20094;-63
2021/12/06 05:24:21;;;;;;;18.15;15.30;;;;;;;3.85;81.14;99688.38;4975653;28;20122;-63
2021/12/06 05:26:48;;;;;;;20.20;15.20;;;;;;;3.85;81.12;99678.09;4958497;28;20090;-63
2021/12/06 05:29:19;;;;;;;19.55;15.32;;;;;;;3.84;81.45;99683.19;4975623;28;20482;-62
2021/12/06 05:31:54;;;;;;;18.83;14.48;;;;;;;3.84;81.23;99684.06;4942435;28;20045;-62
2021/12/06 05:34:27;;;;;;;19.40;15.25;;;;;;;3.84;81.17;99681.47;4975729;28;20034;-62
2021/12/06 05:36:53;;;;;;;17.37;13.93;;;;;;;3.83;81.20;99684.88;4958348;28;20414;-63
2021/12/06 05:39:18;;;;;;;19.65;15.10;;;;;;;3.83;81.38;99689.13;4975357;28;20282;-63
2021/12/06 05:41:44;;;;;;;17.45;14.30;;;;;;;3.84;81.58;99688.31;4958037;28;20058;-63
2021/12/06 05:44:09;;;;;;;19.45;15.73;;;;;;;3.84;81.33;99696.00;4975315;28;20034;-62
2021/12/06 05:46:35;;;;;;;18.63;14.57;;;;;;;3.84;81.18;99693.44;4975625;28;20120;-62
2021/12/06 05:49:03;;;;;;;18.45;14.88;;;;;;;3.83;81.89;99695.13;4975249;28;20491;-62
2021/12/06 05:51:29;;;;;;;19.05;15.38;;;;;;;3.83;81.67;99695.13;4941948;28;20034;-63
2021/12/06 05:53:55;;;;;;;17.83;14.02;;;;;;;3.82;81.50;99693.38;4957384;28;20222;-63
2021/12/06 05:56:21;;;;;;;20.77;15.32;;;;;;;3.82;81.50;99693.38;4975315;28;20046;-63
2021/12/06 05:58:47;;;;;;;21.67;15.88;;;;;;;3.80;81.05;99677.94;4941859;28;20046;-63
2021/12/06 06:01:13;;;;;;;18.23;15.50;;;;;;;3.81;81.19;99678.84;4974851;28;20380;-63
2021/12/06 06:03:38;;;;;;;19.70;15.90;;;;;;;3.78;81.63;99666.75;4974900;28;20039;-63
2021/12/06 06:06:07;;;;;;;20.08;15.43;;;;;;;3.78;81.18;99665.91;4973583;28;20039;-63
2021/12/06 06:08:33;;;;;;;20.77;15.98;;;;;;;3.78;81.06;99673.59;4941567;28;20077;-63
2021/12/06 06:10:58;;;;;;;21.70;15.90;;;;;;;3.77;81.19;99672.69;4957990;28;20066;-63
2021/12/06 06:13:27;;;;;;;20.75;16.25;;;;;;;3.76;81.21;99680.34;4974756;28;20042;-63
2021/12/06 06:15:55;;;;;;;18.58;15.30;;;;;;;3.74;81.41;99690.50;4941472;28;20042;-63
2021/12/06 06:18:20;;;;;;;17.52;15.00;;;;;;;3.75;81.34;99688.84;4974864;28;20109;-63
2021/12/06 06:20:56;;;;;;;19.75;15.52;;;;;;;3.74;81.37;99694.78;4974908;28;20043;-63
2021/12/06 06:23:22;;;;;;;19.67;14.80;;;;;;;3.74;80.91;99703.34;4974770;28;20034;-62
2021/12/06 06:25:49;;;;;;;22.05;16.17;;;;;;;3.75;81.12;99699.09;4957626;28;20402;-62
2021/12/06 06:28:20;;;;;;;18.92;15.48;;;;;;;3.74;80.96;99710.16;4975158;28;20042;-63
2021/12/06 06:30:45;;;;;;;21.95;18.42;;;;;;;3.74;81.26;99699.91;4974686;28;20062;-63
2021/12/06 06:33:10;;;;;;;20.17;16.42;;;;;;;3.72;81.01;99699.88;4974617;28;20506;-62
2021/12/06 06:35:40;;;;;;;20.48;16.80;;;;;;;3.73;81.61;99709.31;4974589;28;20173;-63
2021/12/06 06:38:08;;;;;;;20.02;16.48;;;;;;;3.72;81.52;99706.66;4941408;28;20038;-62
2021/12/06 06:40:34;;;;;;;20.25;16.35;;;;;;;3.72;81.64;99702.44;4957211;28;20495;-62
2021/12/06 06:43:03;;;;;;;21.27;17.08;;;;;;;3.72;81.16;99705.00;4957282;28;20494;-62
2021/12/06 06:45:29;;;;;;;20.23;15.23;;;;;;;3.72;81.13;99711.78;4957372;28;20061;-62
2021/12/06 06:47:54;;;;;;;22.08;16.17;;;;;;;3.72;81.25;99714.34;4974583;28;20039;-62
2021/12/06 06:50:21;;;;;;;22.20;16.77;;;;;;;3.72;81.56;99716.91;4957246;28;20455;-62
2021/12/06 06:52:48;;;;;;;22.00;16.15;;;;;;;3.72;81.14;99716.91;4957630;28;20443;-62
2021/12/06 06:55:17;;;;;;;22.13;16.10;;;;;;;3.71;81.32;99710.94;4957072;28;20121;-62
2021/12/06 06:57:46;;;;;;;21.33;16.83;;;;;;;3.71;81.52;99716.06;4941657;28;20038;-62
2021/12/06 07:00:20;;;;;;;23.48;17.58;;;;;;;3.71;81.18;99716.06;4957155;28;20039;-63
2021/12/06 07:02:46;;;;;;;21.95;16.73;;;;;;;3.71;81.53;99710.94;4937164;29;20047;-63
2021/12/06 07:05:12;;;;;;;23.25;17.45;;;;;;;3.71;80.98;99708.38;4953727;29;20106;-62
2021/12/06 07:07:41;;;;;;;20.52;16.42;;;;;;;3.70;81.09;99709.19;4955323;28;20036;-62
2021/12/06 07:10:07;;;;;;;23.08;17.00;;;;;;;3.71;80.68;99712.59;4953820;29;20050;-62
2021/12/06 07:12:40;;;;;;;24.98;18.58;;;;;;;3.71;80.92;99715.16;4955206;28;20046;-63
2021/12/06 07:15:06;;;;;;;27.30;19.27;;;;;;;3.71;81.85;99715.16;4954003;28;20039;-63
2021/12/06 07:17:32;;;;;;;25.20;18.55;;;;;;;3.71;81.13;99722.84;4958970;28;20395;-63
2021/12/06 07:20:00;;;;;;;24.13;17.55;;;;;;;3.69;81.06;99725.38;4958435;28;20063;-63
2021/12/06 07:22:26;;;;;;;24.52;16.88;;;;;;;3.69;80.88;99730.50;4957305;29;20106;-62
2021/12/06 07:24:53;;;;;;;25.15;17.55;;;;;;;3.70;81.37;99737.38;4958781;28;20043;-62
2021/12/06 07:27:26;;;;;;;27.27;18.70;;;;;;;3.69;80.93;99737.31;4957558;29;20092;-63
2021/12/06 07:30:01;;;;;;;28.67;19.23;;;;;;;3.69;81.36;99727.94;4941242;29;20051;-63
2021/12/06 07:32:32;;;;;;;28.70;19.92;;;;;;;3.69;81.75;99730.50;4957731;29;20050;-62
2021/12/06 07:34:58;;;;;;;31.25;19.25;;;;;;;3.68;81.11;99731.31;4958796;28;20043;-63
2021/12/06 07:37:26;;;;;;;32.17;21.25;;;;;;;3.70;81.51;99744.19;4958377;28;20118;-63
2021/12/06 07:39:51;;;;;;;30.45;21.05;;;;;;;3.68;81.12;99751.81;4958718;28;20043;-62
2021/12/06 07:42:20;;;;;;;31.52;21.00;;;;;;;3.69;81.05;99739.88;4958320;28;20126;-62
2021/12/06 07:44:46;;;;;;;31.40;21.55;;;;;;;3.70;80.76;99744.19;4958138;28;20106;-62
2021/12/06 07:47:19;;;;;;;31.58;20.50;;;;;;;3.70;81.61;99752.75;4958686;28;20062;-62
2021/12/06 07:49:48;;;;;;;29.65;20.80;;;;;;;3.69;81.31;99750.13;4958608;28;20067;-62
2021/12/06 07:52:19;;;;;;;34.28;22.50;;;;;;;3.68;81.46;99751.81;4956811;29;20129;-62
2021/12/06 07:54:50;;;;;;;34.65;22.40;;;;;;;3.66;81.31;99756.88;4940986;29;20035;-62
2021/12/06 07:57:26;;;;;;;34.55;22.27;;;;;;;3.65;81.21;99750.03;4958092;28;20031;-62
2021/12/06 07:59:55;;;;;;;30.05;20.52;;;;;;;3.62;81.42;99747.34;4958587;28;20059;-62
2021/12/06 08:02:29;;;;;;;37.95;24.35;;;;;;;3.60;81.32;99751.53;4940901;29;20087;-63
2021/12/06 08:07:51;;;;;;;35.60;22.85;;;;;;;3.56;81.13;99747.06;4957884;28;20039;-62
2021/12/06 08:10:17;;;;;;;35.70;23.60;;;;;;;3.56;81.13;99752.19;4956599;29;20035;-62
2021/12/06 08:12:46;;;;;;;37.10;23.83;;;;;;;3.55;81.63;99749.59;4957770;28;20506;-62
2021/12/06 08:15:14;;;;;;;40.10;24.55;;;;;;;3.56;81.31;99746.22;4956168;28;20035;-64
2021/12/06 08:17:45;;;;;;;38.67;24.65;;;;;;;3.55;81.45;99747.88;4955755;29;20032;-62
2021/12/06 08:20:11;;;;;;;38.53;24.77;;;;;;;3.57;81.28;99751.41;4940475;29;20039;-63
2021/12/06 08:22:37;;;;;;;37.97;23.70;;;;;;;3.56;81.20;99752.19;4956327;29;20090;-63
2021/12/06 08:25:14;;;;;;;39.55;24.52;;;;;;;3.58;81.22;99753.16;4957999;28;20042;-63
2021/12/06 08:27:45;;;;;;;35.22;23.20;;;;;;;3.57;80.93;99750.53;4956543;28;20035;-63
2021/12/06 08:30:19;;;;;;;35.92;24.55;;;;;;;3.58;81.28;99749.72;4957622;28;20039;-63
2021/12/06 08:32:47;;;;;;;38.65;25.15;;;;;;;3.58;81.09;99753.16;4957638;28;20443;-64
2021/12/06 08:35:23;;;;;;;37.30;23.38;;;;;;;3.59;80.91;99757.47;4957600;28;20035;-63
2021/12/06 08:37:51;;;;;;;37.92;24.20;;;;;;;3.58;81.70;99758.28;4956632;29;20039;-63
2021/12/06 08:40:27;;;;;;;34.83;23.35;;;;;;;3.55;80.75;99755.56;4940555;29;20053;-63
2021/12/06 08:42:59;;;;;;;35.42;23.40;;;;;;;3.54;81.52;99758.94;4957502;29;20042;-63
2021/12/06 08:45:29;;;;;;;33.80;21.40;;;;;;;3.52;80.96;99754.59;4957158;29;20049;-63
2021/12/06 08:47:58;;;;;;;36.42;22.52;;;;;;;3.53;81.25;99762.31;4957166;28;20114;-63
2021/12/06 08:50:33;;;;;;;33.33;22.90;;;;;;;3.50;81.24;99763.09;4956251;29;20051;-63
2021/12/06 08:53:03;;;;;;;35.42;22.45;;;;;;;3.50;81.61;99767.34;4957060;28;20046;-63
2021/12/06 09:27:50;;;;;;;32.00;20.83;;;;;;;3.61;80.44;99822.47;5111264;27;20477;-62
2021/12/06 09:30:24;;;;;;;27.00;19.10;;;;;;;3.52;80.99;99819.50;5090742;28;20044;-62
2021/12/06 09:32:50;;;;;;;26.75;17.98;;;;;;;3.48;81.08;99822.78;5089674;28;20135;-63
2021/12/06 09:35:24;;;;;;;26.25;17.98;;;;;;;3.43;81.30;99812.31;5090566;28;20127;-63
2021/12/06 09:37:54;;;;;;;24.73;16.58;;;;;;;3.43;80.55;99824.28;5089868;28;20043;-63
2021/12/06 09:40:24;;;;;;;26.48;18.88;;;;;;;3.39;80.88;99815.59;5072540;28;20467;-64
2021/12/06 09:42:52;;;;;;;25.05;16.98;;;;;;;3.40;81.49;99816.44;5072682;28;20090;-62
2021/12/06 09:45:22;;;;;;;24.08;16.55;;;;;;;3.39;80.55;99819.81;5090431;28;20447;-63
2021/12/06 09:47:52;;;;;;;26.30;16.83;;;;;;;3.37;81.26;99806.97;5072591;28;20577;-63
2021/12/06 09:52:09;;;;;;;23.40;16.35;;;;;;;3.34;80.96;99805.16;5027671;28;20359;-62
2021/12/06 09:54:40;;;;;;;22.00;17.33;;;;;;;3.35;80.53;99803.47;5010133;28;20120;-63
2021/12/06 09:57:14;;;;;;;26.20;17.00;;;;;;;3.35;81.16;99801.75;5010531;28;20071;-62
2021/12/06 09:59:46;;;;;;;24.70;15.90;;;;;;;3.37;81.22;99806.06;5010111;28;20037;-63
2021/12/06 10:02:17;;;;;;;26.85;18.05;;;;;;;3.38;81.21;99807.81;4993447;28;20059;-63
2021/12/06 10:04:48;;;;;;;25.33;16.50;;;;;;;3.39;81.05;99807.91;4993307;28;20046;-63
2021/12/06 10:07:20;;;;;;;22.90;16.92;;;;;;;3.41;81.62;99807.97;5009408;28;20029;-62
2021/12/06 10:09:51;;;;;;;25.33;17.58;;;;;;;3.41;81.00;99813.97;5009704;28;20158;-62
2021/12/06 10:12:26;;;;;;;22.45;16.08;;;;;;;3.43;80.88;99803.78;5009625;28;20073;-62
2021/12/06 10:15:00;;;;;;;22.30;15.45;;;;;;;3.44;81.12;99802.97;5027138;28;20087;-62
2021/12/06 10:17:32;;;;;;;25.05;15.07;;;;;;;3.44;81.16;99802.97;5009823;28;20034;-62
2021/12/06 10:19:58;;;;;;;24.10;16.48;;;;;;;3.45;80.86;99795.31;5027461;28;20043;-62
2021/12/06 10:22:26;;;;;;;26.33;15.93;;;;;;;3.46;81.22;99793.66;4993210;28;20109;-62
2021/12/06 10:24:57;;;;;;;23.70;16.00;;;;;;;3.46;81.02;99793.66;4993099;28;20420;-62
2021/12/06 10:27:25;;;;;;;23.08;14.82;;;;;;;3.45;81.20;99785.09;4993257;28;20038;-62
2021/12/06 10:29:59;;;;;;;24.98;15.95;;;;;;;3.46;80.80;99781.72;5008993;28;20038;-62
2021/12/06 10:32:26;;;;;;;;;;;;;;;3.44;81.37;99772.22;5009592;28;20040;-62
2021/12/06 10:34:58;;;;;;;25.60;16.35;;;;;;;3.44;81.62;99764.53;5027367;28;19935;-62
2021/12/06 10:37:30;;;;;;;23.20;16.25;;;;;;;3.42;80.68;99759.38;4993276;28;20069;-63
2021/12/06 10:39:56;;;;;;;22.52;15.02;;;;;;;3.43;80.99;99744.84;4992811;28;20396;-63
2021/12/06 10:42:51;;;;;;;26.25;15.68;;;;;;;3.43;80.91;99744.84;5026847;28;20512;-62
2021/12/06 10:45:18;;;;;;;22.40;16.27;;;;;;;3.43;81.57;99735.47;5017811;28;20073;-62
2021/12/06 10:48:04;;;;;;;24.10;16.88;;;;;;;3.43;81.16;99732.91;5026653;28;20049;-62
2021/12/06 10:50:30;;;;;;;28.58;17.00;;;;;;;3.43;81.31;99735.47;5008623;28;20429;-63
2021/12/06 10:52:59;;;;;;;23.88;15.07;;;;;;;3.44;81.14;99729.53;5008800;28;20442;-62
2021/12/06 10:55:28;;;;;;;24.52;16.35;;;;;;;3.45;80.79;99732.97;5009179;28;20558;-62
2021/12/06 10:57:57;;;;;;;21.77;14.57;;;;;;;3.46;81.21;99727.91;5009149;28;20045;-63
2021/12/06 11:00:51;;;;;;;22.88;15.52;;;;;;;3.47;81.15;99721.97;4992310;28;20038;-63
2021/12/06 11:03:29;;;;;;;18.38;14.02;;;;;;;3.50;80.87;99705.84;5021409;28;20050;-62
2021/12/06 11:06:04;;;;;;;17.98;13.85;;;;;;;3.53;80.96;99705.94;4980020;28;20058;-63
2021/12/06 11:08:35;;;;;;;18.23;13.38;;;;;;;3.55;81.00;99696.63;4996064;28;20107;-62
2021/12/06 11:11:27;;;;;;;19.73;13.18;;;;;;;3.58;80.79;99693.34;4995651;28;20438;-63
2021/12/06 11:14:03;;;;;;;;;;;;;;;3.60;80.80;99686.56;5013815;28;20045;-62
2021/12/06 11:16:53;;;;;;;17.08;12.43;;;;;;;3.60;81.32;99682.31;5012157;28;19914;-63
2021/12/06 11:19:29;;;;;;;21.98;14.07;;;;;;;3.62;80.54;99680.69;4979563;28;20492;-64
2021/12/06 11:22:03;;;;;;;19.50;12.95;;;;;;;3.63;80.88;99679.00;5013077;28;20041;-63
2021/12/06 11:24:30;;;;;;;;;;;;;;;3.64;80.95;99666.25;4995967;28;20034;-63
2021/12/06 11:27:08;;;;;;;17.42;13.68;;;;;;;3.67;81.18;99665.47;4979566;28;19914;-63
2021/12/06 11:29:47;;;;;;;15.43;12.05;;;;;;;3.69;80.59;99668.09;4995490;28;20033;-63
2021/12/06 11:32:16;;;;;;;16.05;10.55;;;;;;;3.71;80.98;99664.78;4995455;28;20041;-66
2021/12/06 11:34:50;;;;;;;15.95;11.75;;;;;;;3.72;80.62;99651.16;4979124;28;20492;-63
2021/12/06 11:37:26;;;;;;;16.10;12.55;;;;;;;3.75;80.34;99656.38;4979414;28;20133;-63
2021/12/06 11:40:34;;;;;;;17.17;10.57;;;;;;;3.76;81.13;99655.56;4979307;28;20041;-63
2021/12/06 11:43:03;;;;;;;15.65;12.18;;;;;;;3.76;80.59;99642.75;5017065;28;20145;-63
2021/12/06 11:45:42;;;;;;;15.90;11.52;;;;;;;3.79;80.58;99640.31;5016644;28;20048;-62
2021/12/06 11:48:39;;;;;;;17.67;12.05;;;;;;;3.81;80.53;99637.81;4994878;28;20053;-63
2021/12/06 11:51:11;;;;;;;18.10;11.85;;;;;;;3.83;81.22;99633.59;4981065;28;20436;-63
2021/12/06 11:53:43;;;;;;;14.02;10.32;;;;;;;3.85;80.33;99621.69;4956342;28;20612;-63
2021/12/06 11:56:19;;;;;;;16.73;12.02;;;;;;;3.87;80.08;99620.06;4972400;28;20042;-63
2021/12/06 11:58:59;;;;;;;16.85;10.35;;;;;;;3.88;80.57;99605.56;4956192;28;20034;-63
2021/12/06 12:01:28;;;;;;;16.17;11.07;;;;;;;3.89;80.11;99600.50;4972349;28;20039;-63
2021/12/06 12:04:02;;;;;;;13.75;10.60;;;;;;;3.91;80.13;99603.09;4972225;28;20046;-62
2021/12/06 12:06:29;;;;;;;15.77;10.80;;;;;;;3.91;80.24;99598.88;4972041;28;20097;-63
2021/12/06 12:09:08;;;;;;;14.85;10.43;;;;;;;3.92;80.47;99609.97;4972490;28;20046;-62
2021/12/06 12:12:09;;;;;;;14.63;10.45;;;;;;;3.93;80.95;99598.91;4956048;28;20039;-63
2021/12/06 12:14:40;;;;;;;13.13;9.80;;;;;;;3.95;80.37;99618.69;4972328;28;20478;-62
2021/12/06 12:17:16;;;;;;;13.25;10.30;;;;;;;3.95;80.29;99620.34;4955811;28;20486;-62
2021/12/06 12:19:43;;;;;;;12.25;9.18;;;;;;;3.95;80.22;99613.53;4971999;28;20057;-62
2021/12/06 12:22:13;;;;;;;15.00;11.25;;;;;;;3.95;80.49;99608.41;4972226;28;20043;-62
2021/12/06 12:24:43;;;;;;;12.20;8.50;;;;;;;3.96;80.41;99605.03;4955688;28;20523;-63
2021/12/06 12:30:01;;;;;;;12.68;9.70;;;;;;;3.96;80.20;99602.47;4973507;28;20042;-62
2021/12/06 12:32:29;;;;;;;11.30;8.25;;;;;;;3.97;80.38;99593.06;4973292;28;20406;-63
2021/12/06 12:34:58;;;;;;;11.82;8.98;;;;;;;3.99;80.18;99587.97;4955624;28;20502;-62
2021/12/06 12:37:24;;;;;;;11.80;8.55;;;;;;;3.98;80.64;99587.13;4971731;28;20557;-62
2021/12/06 12:40:05;;;;;;;13.18;8.07;;;;;;;3.97;80.51;99577.69;4955917;28;20034;-62